Time;durP1;ratioP1;P1;durP2;ratioP2;P2;SDS_P1;SDS_P2;PMS_P1;PMS_P2;Temp;Humidity;BMP_temperature;BMP_pressure;BME280_temperature;BME280_humidity;BME280_pressure;Samples;Min_cycle;Max_cycle;Signal;HPM_P1;HPM_P2
2023/03/30 00:02:21;;;;;;;1.38;1.38;;;;;;;5.40;40.35;100432.91;5059846;28;19966;-91
2023/03/30 00:04:49;;;;;;;1.00;1.00;;;;;;;5.23;40.99;100400.34;5060813;28;20040;-91
2023/03/30 00:07:15;;;;;;;1.00;1.00;;;;;;;5.17;41.55;100394.16;5034490;28;20123;-91
2023/03/30 00:09:42;;;;;;;;;;;;;;;5.19;41.58;100436.06;5040100;28;20122;-94
2023/03/30 00:12:14;;;;;;;1.30;1.27;;;;;;;4.41;42.88;100433.59;5072009;28;20374;-94
2023/03/30 00:14:41;;;;;;;1.88;1.77;;;;;;;4.19;43.83;100424.41;5071802;28;20040;-95
2023/03/30 00:17:08;;;;;;;2.30;2.20;;;;;;;4.26;44.57;100404.53;5071679;28;20034;-94
2023/03/30 00:19:36;;;;;;;1.77;1.67;;;;;;;4.22;44.32;100423.59;5071266;28;20119;-95
2023/03/30 00:22:04;;;;;;;2.10;1.90;;;;;;;4.30;44.89;100432.50;5054568;28;20144;-96
2023/03/30 00:24:31;;;;;;;5.85;1.58;;;;;;;4.17;45.05;100404.31;5055361;28;20047;-95
2023/03/30 00:26:58;;;;;;;4.35;1.90;;;;;;;4.22;44.94;100419.25;5071848;28;20032;-95
2023/03/30 00:29:24;;;;;;;2.42;2.20;;;;;;;3.99;45.01;100423.94;5056003;28;20036;-95
2023/03/30 00:31:49;;;;;;;;;;;;;;;3.95;44.96;100424.72;5043075;28;20098;-94
2023/03/30 00:34:16;;;;;;;;;;;;;;;3.64;45.56;100421.38;5053962;28;19974;-94
2023/03/30 00:36:45;;;;;;;1.52;1.42;;;;;;;3.03;47.09;100377.25;5052927;28;19985;-95
2023/03/30 00:39:12;;;;;;;1.42;1.35;;;;;;;3.19;47.65;100420.22;5065140;28;20172;-93
2023/03/30 00:41:38;;;;;;;2.15;2.05;;;;;;;3.20;47.32;100390.72;5076535;28;20036;-92
2023/03/30 00:44:26;;;;;;;;;;;;;;;3.13;48.06;100430.50;5078505;28;20048;-91
2023/03/30 00:46:53;;;;;;;1.40;1.30;;;;;;;3.17;47.56;100421.94;5076432;28;19924;-94
2023/03/30 00:49:20;;;;;;;1.20;1.20;;;;;;;3.17;47.61;100405.41;5070009;28;20070;-94
2023/03/30 00:51:49;;;;;;;2.22;2.13;;;;;;;3.32;47.75;100420.56;5070598;28;20558;-93
2023/03/30 00:54:19;;;;;;;1.85;1.77;;;;;;;3.22;47.22;100409.00;5071304;28;20035;-92
2023/03/30 00:56:45;;;;;;;1.88;1.77;;;;;;;3.29;46.48;100403.13;5067984;28;20032;-90
2023/03/30 00:59:11;;;;;;;1.50;1.45;;;;;;;3.20;46.91;100408.09;5057780;28;20497;-94
2023/03/30 01:01:39;;;;;;;;;;;;;;;3.23;47.96;100421.22;5059540;28;20039;-94
2023/03/30 01:04:08;;;;;;;2.35;2.17;;;;;;;2.93;47.53;100356.97;5034537;28;20133;-94
2023/03/30 01:06:38;;;;;;;1.90;1.73;;;;;;;3.25;47.90;100396.06;5069001;28;20174;-91
2023/03/30 01:09:07;;;;;;;1.30;1.30;;;;;;;3.14;47.55;100393.16;5071792;28;20246;-94
2023/03/30 01:11:32;;;;;;;1.30;1.30;;;;;;;3.38;47.27;100424.22;5070527;28;20115;-92
2023/03/30 01:14:04;;;;;;;;;;;;;;;3.40;47.32;100417.31;5062224;28;20060;-94
2023/03/30 01:16:44;;;;;;;1.58;1.48;;;;;;;3.44;47.51;100433.03;5048455;28;19920;-94
2023/03/30 01:19:42;;;;;;;1.20;1.20;;;;;;;3.02;49.56;100438.03;5052856;28;20040;-94
2023/03/30 01:22:39;;;;;;;1.20;1.20;;;;;;;3.18;49.79;100417.59;5070105;28;20029;-92
2023/03/30 01:25:27;;;;;;;1.98;1.88;;;;;;;3.28;50.26;100416.13;5066925;28;20037;-94
2023/03/30 01:28:30;;;;;;;2.15;1.80;;;;;;;3.33;51.18;100417.97;5085713;28;20044;-94
2023/03/30 01:31:02;;;;;;;1.10;1.10;;;;;;;3.17;52.01;100415.84;5070323;28;20033;-95
2023/03/30 01:34:05;;;;;;;1.17;1.17;;;;;;;2.73;51.67;100420.69;5070465;28;20028;-94
2023/03/30 01:36:40;;;;;;;2.53;1.63;;;;;;;2.63;52.26;100420.44;5071737;28;20042;-94
2023/03/30 01:39:44;;;;;;;1.48;1.42;;;;;;;2.86;52.35;100421.09;5050521;28;20092;-95
2023/03/30 01:42:20;;;;;;;1.90;1.80;;;;;;;2.99;50.78;100437.06;5005639;28;20533;-94
2023/03/30 01:45:07;;;;;;;1.45;1.40;;;;;;;2.73;49.95;100411.16;5009600;28;20057;-94
2023/03/30 01:47:42;;;;;;;1.20;1.20;;;;;;;2.76;51.70;100446.84;5009473;28;20037;-95
2023/03/30 01:50:16;;;;;;;1.50;1.40;;;;;;;2.37;53.08;100434.44;4993636;28;20053;-93
2023/03/30 01:52:59;;;;;;;1.50;1.40;;;;;;;2.02;54.03;100397.78;4993928;28;20069;-95
2023/03/30 01:55:42;;;;;;;1.50;1.40;;;;;;;2.08;54.64;100413.59;5007310;28;20034;-94
2023/03/30 01:58:31;;;;;;;1.83;1.70;;;;;;;1.97;54.70;100380.31;5009147;28;20160;-95
2023/03/30 02:01:00;;;;;;;1.80;1.70;;;;;;;2.20;54.54;100407.88;4996103;28;20053;-93
2023/03/30 02:03:32;;;;;;;1.75;1.65;;;;;;;2.07;54.50;100388.38;5012340;28;20034;-91
2023/03/30 02:06:08;;;;;;;1.50;1.40;;;;;;;2.28;53.65;100412.47;4992972;28;20058;-90
2023/03/30 02:08:36;;;;;;;1.77;1.67;;;;;;;2.19;52.72;100393.97;4992501;28;20089;-90
2023/03/30 02:11:02;;;;;;;1.10;1.10;;;;;;;2.31;51.91;100438.59;4977684;28;20073;-94
2023/03/30 02:13:30;;;;;;;1.10;1.10;;;;;;;2.17;51.07;100421.69;4977864;28;20051;-91
2023/03/30 02:16:03;;;;;;;1.20;1.20;;;;;;;2.10;50.42;100419.72;5009989;28;20033;-92
2023/03/30 02:18:29;;;;;;;2.17;2.08;;;;;;;2.01;51.61;100420.34;5001889;28;20056;-94
2023/03/30 02:20:57;;;;;;;;;;;;;;;2.19;51.51;100440.81;5072479;28;20037;-94
2023/03/30 02:23:27;;;;;;;1.05;1.05;;;;;;;2.18;52.17;100404.34;5057108;28;19946;-93
2023/03/30 02:25:53;;;;;;;1.40;1.40;;;;;;;2.47;52.41;100434.75;5071688;28;20040;-94
2023/03/30 02:28:19;;;;;;;1.27;1.25;;;;;;;2.42;52.19;100420.69;5073167;28;20052;-93
2023/03/30 02:30:46;;;;;;;;;;;;;;;2.70;51.85;100447.53;5073616;28;20153;-94
2023/03/30 02:33:53;;;;;;;1.20;1.20;;;;;;;2.61;51.80;100437.75;5074652;28;19928;-94
2023/03/30 02:36:46;;;;;;;1.20;1.20;;;;;;;2.59;51.44;100429.00;5063586;28;20482;-94
2023/03/30 02:39:38;;;;;;;1.85;1.75;;;;;;;2.58;51.41;100449.78;5053304;28;20033;-94
2023/03/30 02:42:58;;;;;;;1.55;1.45;;;;;;;2.50;51.97;100453.06;5053596;28;20395;-93
2023/03/30 02:45:42;;;;;;;1.20;1.20;;;;;;;2.30;52.43;100436.84;5032166;28;20136;-93
2023/03/30 02:48:28;;;;;;;1.30;1.30;;;;;;;2.44;51.93;100467.59;5051706;28;20505;-94
2023/03/30 02:51:30;;;;;;;2.40;2.20;;;;;;;2.10;52.15;100432.72;5035514;28;20037;-93
2023/03/30 02:54:34;;;;;;;1.20;1.20;;;;;;;2.30;52.61;100457.69;5051990;28;20049;-91
2023/03/30 02:57:11;;;;;;;1.27;1.27;;;;;;;2.21;52.88;100452.19;4991554;28;20125;-92
2023/03/30 03:00:07;;;;;;;1.42;1.42;;;;;;;2.00;53.37;100464.53;4968085;28;20077;-94
2023/03/30 03:02:42;;;;;;;1.63;1.55;;;;;;;2.03;53.39;100444.69;4924366;29;20245;-92
2023/03/30 03:05:11;;;;;;;2.42;2.22;;;;;;;2.06;52.99;100428.28;4933835;29;20114;-90
2023/03/30 03:07:38;;;;;;;1.23;1.23;;;;;;;2.05;52.99;100424.78;4935276;29;20138;-90
2023/03/30 03:10:05;;;;;;;1.10;1.10;;;;;;;2.33;52.11;100481.22;4933637;29;20047;-93
2023/03/30 03:12:32;;;;;;;4.20;1.92;;;;;;;1.73;52.46;100379.53;4946239;28;20052;-90
2023/03/30 03:15:00;;;;;;;;;;;;;;;2.04;52.40;100475.09;4953070;29;20066;-92
2023/03/30 03:17:33;;;;;;;1.63;1.52;;;;;;;2.07;52.01;100480.38;4956896;28;19923;-90
2023/03/30 03:20:03;;;;;;;2.47;1.77;;;;;;;1.66;52.38;100455.63;4965960;28;20066;-88
2023/03/30 03:22:29;;;;;;;1.85;1.75;;;;;;;1.64;53.34;100459.88;4974442;28;20070;-88
2023/03/30 03:24:55;;;;;;;1.40;1.40;;;;;;;1.63;53.42;100478.94;4961092;28;20050;-88
2023/03/30 03:27:21;;;;;;;;;;;;;;;1.73;52.85;100478.38;4942819;29;20043;-88
2023/03/30 03:29:48;;;;;;;1.40;1.40;;;;;;;1.26;52.95;100405.75;4950374;29;19918;-88
2023/03/30 03:32:14;;;;;;;3.15;2.95;;;;;;;1.43;52.94;100464.41;4962376;29;20072;-89
2023/03/30 03:34:43;;;;;;;;;;;;;;;1.48;52.69;100484.47;4976533;28;20461;-87
2023/03/30 03:42:12;;;;;;;1.50;1.45;;;;;;;1.36;53.19;100490.13;5130201;27;20410;-93
2023/03/30 03:44:43;;;;;;;2.38;2.25;;;;;;;1.00;53.90;100434.31;5069798;28;20568;-93
2023/03/30 03:47:12;;;;;;;21.55;2.80;;;;;;;1.32;53.34;100451.88;5070329;28;20436;-92
2023/03/30 03:49:37;;;;;;;4.07;2.53;;;;;;;1.46;53.99;100466.22;5109071;28;20120;-92
2023/03/30 03:52:03;;;;;;;3.90;3.17;;;;;;;1.15;53.79;100457.38;5089844;28;20046;-86
2023/03/30 03:54:29;;;;;;;;;;;;;;;1.54;54.23;100508.09;5091783;28;20024;-93
2023/03/30 03:56:55;;;;;;;1.80;1.70;;;;;;;1.18;53.95;100426.28;5072485;28;19908;-88
2023/03/30 03:59:21;;;;;;;3.22;3.03;;;;;;;1.51;54.28;100503.66;5069750;28;20084;-91
2023/03/30 04:01:46;;;;;;;;;;;;;;;1.46;54.71;100515.63;5082865;28;20042;-89
2023/03/30 04:04:12;;;;;;;1.20;1.20;;;;;;;1.42;54.63;100499.06;5107296;28;19921;-87
2023/03/30 04:06:37;;;;;;;;;;;;;;;1.27;55.09;100511.50;5107815;28;20035;-85
2023/03/30 04:09:02;;;;;;;;;;;;;;;1.21;55.60;100509.56;5102868;28;19916;-87
2023/03/30 04:13:40;;;;;;;1.98;1.88;;;;;;;0.96;55.53;100466.22;5125077;27;20422;-92
2023/03/30 04:16:06;;;;;;;;;;;;;;;1.32;56.03;100515.16;5086218;28;20067;-94
2023/03/30 04:18:33;;;;;;;;;;;;;;;1.42;55.84;100511.16;5071392;28;19915;-92
2023/03/30 04:21:04;;;;;;;2.13;2.03;;;;;;;1.14;55.54;100463.38;5104761;28;19920;-91
2023/03/30 04:23:32;;;;;;;4.72;4.32;;;;;;;1.32;55.92;100525.53;5080362;28;20039;-92
2023/03/30 04:26:01;;;;;;;2.28;2.17;;;;;;;1.54;55.37;100541.91;5084665;28;20122;-92
2023/03/30 04:28:31;;;;;;;1.30;1.30;;;;;;;1.52;55.05;100515.84;5075986;28;20028;-89
2023/03/30 04:31:02;;;;;;;3.30;3.00;;;;;;;1.35;55.14;100502.25;5068600;28;20039;-90
2023/03/30 04:33:29;;;;;;;6.82;4.60;;;;;;;1.29;54.69;100534.97;5068701;28;20035;-90
2023/03/30 04:35:54;;;;;;;4.47;4.13;;;;;;;1.75;54.08;100521.84;5068893;28;20036;-92
2023/03/30 04:38:24;;;;;;;3.10;2.80;;;;;;;1.62;53.20;100465.03;5077858;28;20060;-87
2023/03/30 04:40:51;;;;;;;;;;;;;;;2.07;53.00;100540.25;5102748;28;20078;-92
2023/03/30 04:45:28;;;;;;;1.70;1.60;;;;;;;2.10;53.12;100531.63;5062742;27;2113413;-88
2023/03/30 04:47:55;;;;;;;4.20;2.45;;;;;;;2.04;53.80;100528.84;5108386;28;20678;-89
2023/03/30 04:50:21;;;;;;;1.83;1.73;;;;;;;2.04;53.56;100531.44;5127220;28;20035;-87
2023/03/30 04:52:46;;;;;;;;;;;;;;;2.25;53.81;100550.38;5124615;28;20092;-88
2023/03/30 04:55:11;;;;;;;;;;;;;;;2.13;54.42;100558.69;5106300;28;20376;-87
2023/03/30 04:57:37;;;;;;;1.97;1.87;;;;;;;2.34;54.54;100557.59;5036246;28;20023;-91
2023/03/30 05:00:08;;;;;;;;;;;;;;;2.46;54.07;100550.16;5050205;28;20279;-88
2023/03/30 05:02:34;;;;;;;1.20;1.20;;;;;;;2.67;53.38;100552.56;5080788;28;19920;-90
2023/03/30 05:05:00;;;;;;;;;;;;;;;2.83;54.60;100566.94;5083962;28;20032;-91
2023/03/30 05:07:26;;;;;;;1.20;1.20;;;;;;;2.76;53.22;100519.81;5078490;28;19974;-89
2023/03/30 05:09:51;;;;;;;;;;;;;;;3.18;53.26;100572.31;5070488;28;20051;-92
2023/03/30 05:12:17;;;;;;;1.20;1.20;;;;;;;3.13;53.30;100542.59;5080918;28;20393;-91
2023/03/30 05:14:42;;;;;;;;;;;;;;;3.18;54.25;100572.31;5048831;28;20063;-91
2023/03/30 05:17:07;;;;;;;;;;;;;;;3.15;55.33;100577.44;5058787;28;19940;-90
2023/03/30 05:19:33;;;;;;;1.10;1.10;;;;;;;3.01;55.54;100519.69;5050491;28;20007;-88
2023/03/30 05:21:59;;;;;;;;;;;;;;;3.51;55.03;100563.69;5070918;28;20413;-88
2023/03/30 05:24:25;;;;;;;1.23;1.23;;;;;;;3.64;55.03;100569.22;5067077;28;19916;-88
2023/03/30 05:26:50;;;;;;;;;;;;;;;3.97;54.75;100573.56;5074835;28;20036;-88
2023/03/30 05:29:16;;;;;;;0.98;0.98;;;;;;;3.89;53.81;100542.03;5070542;28;19940;-88
2023/03/30 05:31:41;;;;;;;;;;;;;;;4.42;53.60;100567.75;5072147;28;20093;-88
2023/03/30 05:34:06;;;;;;;;;;;;;;;4.72;52.57;100564.94;5072171;28;20372;-88
2023/03/30 05:36:34;;;;;;;1.07;1.07;;;;;;;4.96;51.92;100559.38;5070757;28;20369;-88
2023/03/30 05:38:59;;;;;;;1.00;1.00;;;;;;;5.06;50.22;100543.88;5072952;28;20314;-88
2023/03/30 05:41:26;;;;;;;;;;;;;;;5.47;49.45;100564.75;5071025;28;20052;-88
2023/03/30 05:43:53;;;;;;;2.33;2.20;;;;;;;5.38;49.09;100494.81;5073510;28;19920;-89
2023/03/30 05:46:18;;;;;;;1.08;1.08;;;;;;;5.51;48.60;100522.09;5068830;28;20495;-87
2023/03/30 05:48:44;;;;;;;;;;;;;;;6.12;47.85;100559.00;5075450;28;20043;-88
2023/03/30 05:51:10;;;;;;;3.30;2.95;;;;;;;6.40;47.33;100530.63;5068060;28;19920;-87
2023/03/30 05:53:36;;;;;;;2.00;1.90;;;;;;;6.71;46.91;100534.56;5075429;28;20033;-88
2023/03/30 05:56:02;;;;;;;;;;;;;;;7.29;45.58;100562.44;5041752;28;20402;-88
2023/03/30 05:58:27;;;;;;;4.80;1.63;;;;;;;7.28;43.96;100521.31;5035122;28;19912;-89
2023/03/30 06:00:56;;;;;;;5.18;1.80;;;;;;;7.39;46.19;100545.06;5052705;28;20060;-87
2023/03/30 06:03:22;;;;;;;2.28;2.13;;;;;;;7.20;48.97;100573.72;5053572;28;20040;-85
2023/03/30 06:05:47;;;;;;;;;;;;;;;7.30;48.98;100575.56;5063619;28;20029;-89
2023/03/30 06:08:13;;;;;;;1.48;1.38;;;;;;;7.18;48.66;100583.28;5058760;28;19916;-88
2023/03/30 06:10:39;;;;;;;;;;;;;;;7.46;48.87;100578.38;5053733;28;20033;-89
2023/03/30 06:13:04;;;;;;;2.65;2.47;;;;;;;7.46;47.43;100553.03;5067868;28;20297;-88
2023/03/30 06:15:29;;;;;;;;;;;;;;;7.63;47.04;100584.72;5034898;28;20174;-87
2023/03/30 06:17:57;;;;;;;;;;;;;;;8.18;45.85;100576.50;5053103;28;19913;-88
2023/03/30 06:20:24;;;;;;;1.83;1.65;;;;;;;8.85;44.13;100577.03;5034703;28;19966;-89
2023/03/30 06:22:51;;;;;;;1.88;1.77;;;;;;;9.24;43.57;100572.88;5057027;28;20020;-87
2023/03/30 06:25:22;;;;;;;1.33;1.25;;;;;;;9.43;41.87;100540.44;5071919;28;20166;-88
2023/03/30 06:27:47;;;;;;;2.40;1.55;;;;;;;9.76;40.97;100554.59;5072440;28;20112;-88
2023/03/30 06:30:14;;;;;;;;;;;;;;;10.17;40.30;100582.75;5072406;28;20115;-88
2023/03/30 06:32:39;;;;;;;2.88;2.67;;;;;;;9.78;40.69;100525.63;5072528;28;19962;-88
2023/03/30 06:35:05;;;;;;;;;;;;;;;10.53;38.92;100583.69;5072143;28;20032;-88
2023/03/30 06:37:31;;;;;;;0.77;0.77;;;;;;;10.54;38.30;100555.53;5072251;28;19916;-89
2023/03/30 06:39:57;;;;;;;2.38;2.25;;;;;;;10.93;37.41;100567.75;5071740;28;20067;-91
2023/03/30 06:42:22;;;;;;;;;;;;;;;11.43;34.95;100584.34;5054163;28;20064;-91
2023/03/30 06:44:47;;;;;;;;;;;;;;;11.60;34.94;100581.63;5071841;28;19938;-90
2023/03/30 06:47:13;;;;;;;;;;;;;;;11.63;34.32;100589.53;5055122;28;19916;-92
2023/03/30 06:49:39;;;;;;;0.60;0.60;;;;;;;11.16;33.76;100556.25;5072269;28;19913;-93
2023/03/30 06:52:05;;;;;;;0.80;0.80;;;;;;;10.89;33.61;100496.50;5036429;28;20040;-91
2023/03/30 06:54:30;;;;;;;;;;;;;;;11.85;33.74;100591.16;5054653;28;20033;-92
2023/03/30 06:56:56;;;;;;;1.13;0.98;;;;;;;11.33;33.66;100550.91;5052174;28;19913;-91
2023/03/30 06:59:21;;;;;;;;;;;;;;;11.53;33.04;100589.59;5071470;28;20040;-90
2023/03/30 07:01:47;;;;;;;;;;;;;;;11.38;35.52;100588.75;5071396;28;19919;-90
2023/03/30 07:04:14;;;;;;;2.97;1.48;;;;;;;11.52;34.41;100564.91;5052962;28;20385;-91
2023/03/30 07:06:40;;;;;;;1.73;1.63;;;;;;;11.53;34.11;100574.59;5052912;28;20079;-91
2023/03/30 07:09:07;;;;;;;;;;;;;;;12.09;33.75;100585.75;5070744;28;20059;-91
2023/03/30 07:11:32;;;;;;;5.60;3.90;;;;;;;12.12;33.91;100569.84;5036510;28;20015;-90
2023/03/30 07:13:59;;;;;;;;;;;;;;;11.90;34.71;100574.38;5070892;28;20031;-88
2023/03/30 07:16:25;;;;;;;0.93;0.93;;;;;;;12.11;34.25;100538.13;5070641;28;19912;-88
2023/03/30 07:18:51;;;;;;;;;;;;;;;12.60;34.09;100572.09;5070720;28;20417;-88
2023/03/30 07:21:17;;;;;;;3.55;2.17;;;;;;;12.06;34.32;100527.59;5070866;28;20002;-87
2023/03/30 07:23:43;;;;;;;2.53;2.33;;;;;;;12.23;34.43;100545.97;5070836;28;20036;-87
2023/03/30 07:26:09;;;;;;;1.42;1.33;;;;;;;12.48;34.33;100574.84;5070342;28;20036;-86
2023/03/30 07:28:37;;;;;;;;;;;;;;;12.46;35.09;100569.59;5052501;28;20512;-86
2023/03/30 07:31:08;;;;;;;12.02;5.47;;;;;;;12.54;35.15;100524.53;5070216;28;19912;-88
2023/03/30 07:33:35;;;;;;;2.92;2.65;;;;;;;12.83;34.50;100568.38;5053318;28;20036;-91
2023/03/30 07:36:03;;;;;;;0.98;0.98;;;;;;;12.70;33.76;100555.25;5053531;28;20028;-87
2023/03/30 07:38:29;;;;;;;2.67;2.47;;;;;;;12.21;34.15;100483.41;5053967;28;20426;-90
2023/03/30 07:40:55;;;;;;;2.72;2.53;;;;;;;13.15;33.80;100524.75;5053262;28;20032;-91
2023/03/30 07:43:20;;;;;;;;;;;;;;;12.74;33.69;100526.97;5053319;28;20040;-90
2023/03/30 07:45:46;;;;;;;2.42;2.22;;;;;;;13.22;33.03;100569.69;5052124;28;20006;-93
2023/03/30 07:48:11;;;;;;;;;;;;;;;12.92;35.30;100568.25;5071838;28;20394;-89
2023/03/30 07:50:37;;;;;;;1.13;1.10;;;;;;;13.21;35.55;100551.19;5072115;28;19962;-91
2023/03/30 07:53:02;;;;;;;;;;;;;;;13.94;34.47;100565.22;5072506;28;20051;-91
2023/03/30 07:55:29;;;;;;;;;;;;;;;14.09;31.94;100558.81;5053656;28;19920;-93
2023/03/30 07:57:56;;;;;;;7.47;2.70;;;;;;;14.13;32.13;100546.34;5053456;28;20440;-92
2023/03/30 08:00:22;;;;;;;1.02;1.02;;;;;;;14.12;32.78;100545.50;5070035;28;20078;-93
2023/03/30 08:02:48;;;;;;;2.35;1.65;;;;;;;13.82;32.59;100524.75;5033123;28;20036;-93
2023/03/30 08:05:14;;;;;;;;;;;;;;;14.01;32.12;100530.63;5033870;28;20029;-93
2023/03/30 08:07:40;;;;;;;1.27;1.17;;;;;;;13.99;32.76;100548.38;5053678;28;19948;-92
2023/03/30 08:10:06;;;;;;;;;;;;;;;14.23;32.24;100544.47;5053484;28;20068;-93
2023/03/30 08:12:32;;;;;;;6.05;2.17;;;;;;;13.95;32.35;100537.81;5053396;28;20037;-94
2023/03/30 08:14:58;;;;;;;;;;;;;;;14.01;31.27;100557.16;5053230;28;20054;-92
2023/03/30 08:17:23;;;;;;;1.70;1.60;;;;;;;13.83;31.98;100527.38;5070652;28;19916;-93
2023/03/30 08:19:49;;;;;;;;;;;;;;;14.05;33.63;100554.44;5053680;28;20028;-93
2023/03/30 08:22:14;;;;;;;;;;;;;;;14.65;32.36;100549.94;5053624;28;19912;-93
2023/03/30 08:24:40;;;;;;;0.85;0.85;;;;;;;14.80;33.01;100531.06;5053396;28;20286;-93
2023/03/30 08:27:05;;;;;;;2.63;1.80;;;;;;;15.31;31.04;100519.41;5052779;28;20033;-92
2023/03/30 08:29:32;;;;;;;;;;;;;;;14.84;31.25;100537.19;5053051;28;20036;-92
2023/03/30 08:31:57;;;;;;;2.47;1.80;;;;;;;14.69;33.03;100533.06;5053037;28;19912;-93
2023/03/30 08:34:23;;;;;;;;;;;;;;;14.55;31.76;100527.97;5070769;28;20036;-92
2023/03/30 08:36:48;;;;;;;;;;;;;;;14.20;31.98;100521.50;5052600;28;19908;-92
2023/03/30 08:39:14;;;;;;;1.00;1.00;;;;;;;14.38;32.52;100527.38;5070847;28;19922;-92
2023/03/30 08:41:43;;;;;;;0.55;0.55;;;;;;;15.14;31.29;100530.41;5052585;28;20406;-93
2023/03/30 08:44:19;;;;;;;6.65;1.52;;;;;;;15.12;31.50;100520.69;5052345;28;20056;-93
2023/03/30 08:46:47;;;;;;;0.63;0.63;;;;;;;15.35;31.61;100521.13;5053382;28;20094;-94
2023/03/30 08:49:17;;;;;;;0.85;0.85;;;;;;;15.25;30.88;100513.38;5052953;28;20032;-93
2023/03/30 08:51:43;;;;;;;3.17;1.77;;;;;;;15.21;31.28;100492.19;5052744;28;20508;-94
2023/03/30 08:54:15;;;;;;;1.95;1.73;;;;;;;15.43;31.17;100501.44;5052291;28;20468;-92
2023/03/30 08:56:53;;;;;;;3.53;1.48;;;;;;;15.46;30.94;100518.22;5071074;28;20029;-93
2023/03/30 08:59:27;;;;;;;0.80;0.75;;;;;;;14.98;31.07;100495.31;5070738;28;20033;-94
2023/03/30 09:02:13;;;;;;;1.17;0.98;;;;;;;13.97;31.73;100485.59;5063171;28;20518;-91
2023/03/30 09:05:00;;;;;;;0.80;0.80;;;;;;;14.20;32.91;100473.72;5045810;28;20048;-91
2023/03/30 09:07:46;;;;;;;0.93;0.70;;;;;;;14.71;33.15;100490.53;5067302;28;20068;-95
2023/03/30 09:10:14;;;;;;;1.05;0.95;;;;;;;14.84;31.58;100476.09;5039416;28;20111;-90
2023/03/30 09:12:49;;;;;;;1.05;0.77;;;;;;;13.89;31.75;100433.59;5069000;28;20406;-90
2023/03/30 09:15:28;;;;;;;2.72;2.20;;;;;;;14.00;32.96;100479.38;5069563;28;20024;-91
2023/03/30 09:18:20;;;;;;;1.02;0.95;;;;;;;13.57;33.09;100467.66;5033273;28;20028;-94
2023/03/30 09:20:49;;;;;;;1.33;1.25;;;;;;;13.87;34.27;100467.19;4974055;28;20096;-95
2023/03/30 09:23:16;;;;;;;1.13;1.00;;;;;;;13.77;31.84;100427.56;4966442;28;20073;-94
2023/03/30 09:25:49;;;;;;;2.47;2.22;;;;;;;13.24;32.06;100410.72;4978877;28;20041;-91
2023/03/30 09:28:26;;;;;;;1.10;1.08;;;;;;;13.71;32.87;100458.63;4957669;28;20023;-92
2023/03/30 09:31:28;;;;;;;2.42;1.60;;;;;;;13.45;33.57;100461.69;4982985;28;20042;-95
2023/03/30 09:34:05;;;;;;;3.85;2.25;;;;;;;13.34;32.59;100414.13;4988486;28;20043;-89
2023/03/30 09:36:42;;;;;;;3.45;2.10;;;;;;;13.67;33.64;100427.75;4994246;28;20164;-94
2023/03/30 09:39:16;;;;;;;0.77;0.77;;;;;;;14.55;32.10;100436.81;4986675;28;20050;-95
2023/03/30 09:42:15;;;;;;;1.70;1.60;;;;;;;14.27;31.52;100440.88;4962459;28;20499;-91
2023/03/30 09:44:46;;;;;;;1.40;1.30;;;;;;;13.87;33.02;100416.81;4989785;28;20515;-89
2023/03/30 09:47:24;;;;;;;1.98;1.42;;;;;;;13.28;33.39;100385.91;4982548;28;20039;-84
2023/03/30 09:50:17;;;;;;;1.38;1.25;;;;;;;13.73;32.93;100420.59;4985028;28;20041;-85
2023/03/30 09:52:55;;;;;;;1.70;1.45;;;;;;;14.01;32.46;100436.03;4988448;28;20053;-85
2023/03/30 09:55:20;;;;;;;8.02;1.58;;;;;;;14.19;31.70;100447.22;4990811;28;20065;-86
2023/03/30 09:57:45;;;;;;;;;;;;;;;14.02;32.49;100421.00;5009486;28;20400;-85
2023/03/30 10:00:40;;;;;;;;;;;;;;;14.50;32.62;100416.56;5053033;28;19913;-86
2023/03/30 10:03:07;;;;;;;0.65;0.40;;;;;;;14.29;32.83;100404.56;5010433;28;20161;-88
2023/03/30 10:05:35;;;;;;;0.68;0.68;;;;;;;13.60;33.21;100398.69;5009359;28;20436;-85
2023/03/30 10:08:19;;;;;;;0.98;0.93;;;;;;;13.69;32.84;100359.69;4993476;28;20068;-87
2023/03/30 10:10:51;;;;;;;1.40;1.30;;;;;;;14.29;32.53;100372.72;5010406;28;20037;-88
2023/03/30 10:13:18;;;;;;;1.73;1.60;;;;;;;13.99;33.03;100384.78;5010286;28;20840;-87
2023/03/30 10:15:47;;;;;;;1.60;1.48;;;;;;;14.10;32.90;100382.81;5009376;28;20034;-85
2023/03/30 10:18:24;;;;;;;1.10;1.05;;;;;;;14.01;34.08;100371.50;5009996;28;20034;-86
2023/03/30 10:21:00;;;;;;;2.33;2.15;;;;;;;14.27;33.51;100394.88;4993214;28;20046;-87
2023/03/30 10:23:32;;;;;;;0.77;0.77;;;;;;;14.76;33.38;100396.59;5009599;28;20029;-88
2023/03/30 10:26:02;;;;;;;0.47;0.47;;;;;;;14.78;29.13;100365.56;5009660;28;20053;-87
2023/03/30 10:28:32;;;;;;;0.50;0.50;;;;;;;14.58;27.28;100349.13;5009508;28;20030;-85
2023/03/30 10:31:04;;;;;;;0.35;0.35;;;;;;;14.98;29.95;100353.63;5009435;28;20145;-86
2023/03/30 10:33:30;;;;;;;0.50;0.50;;;;;;;14.95;26.55;100373.19;5009708;28;20048;-85
2023/03/30 10:36:02;;;;;;;1.15;0.90;;;;;;;14.50;29.13;100351.94;5009222;28;20038;-84
2023/03/30 10:38:32;;;;;;;0.52;0.47;;;;;;;15.13;32.30;100371.00;5012764;28;20495;-85
2023/03/30 10:41:15;;;;;;;0.25;0.25;;;;;;;14.77;28.86;100317.81;5050940;28;20398;-85
2023/03/30 10:43:42;;;;;;;0.30;0.30;;;;;;;14.65;27.74;100309.19;5051214;28;20045;-84
2023/03/30 10:46:14;;;;;;;0.75;0.63;;;;;;;15.27;28.24;100354.72;5049911;28;20461;-84
2023/03/30 10:49:02;;;;;;;0.80;0.70;;;;;;;14.79;26.64;100346.06;5051508;28;20048;-84
2023/03/30 10:51:30;;;;;;;0.63;0.63;;;;;;;14.81;26.75;100338.94;5051797;28;20593;-84
2023/03/30 10:54:11;;;;;;;0.98;0.80;;;;;;;14.83;25.33;100358.38;5052104;28;20029;-83
2023/03/30 10:56:50;;;;;;;0.32;0.32;;;;;;;15.55;27.63;100346.94;5051792;28;20029;-84
2023/03/30 10:59:22;;;;;;;0.40;0.40;;;;;;;15.47;25.87;100348.94;5051667;28;20029;-84
2023/03/30 11:01:50;;;;;;;1.40;0.75;;;;;;;15.15;25.84;100343.50;5051428;28;20079;-83
2023/03/30 11:04:25;;;;;;;1.27;0.68;;;;;;;15.32;27.02;100332.47;5052118;28;20033;-83
2023/03/30 11:06:55;;;;;;;0.90;0.60;;;;;;;15.02;25.04;100318.97;5051926;28;20048;-82
2023/03/30 11:09:30;;;;;;;0.20;0.20;;;;;;;15.25;26.64;100298.09;5051482;28;20052;-84
2023/03/30 11:12:02;;;;;;;2.08;0.52;;;;;;;15.55;26.14;100318.59;5051538;28;20111;-85
2023/03/30 11:14:33;;;;;;;0.63;0.63;;;;;;;15.50;25.95;100285.91;5051096;28;20123;-85
2023/03/30 11:17:22;;;;;;;0.20;0.20;;;;;;;15.83;25.06;100285.94;5051452;28;20021;-85
2023/03/30 11:19:54;;;;;;;0.20;0.20;;;;;;;15.86;27.67;100267.25;5051460;28;20116;-84
2023/03/30 11:22:29;;;;;;;0.32;0.32;;;;;;;16.23;27.32;100299.94;5051289;28;20076;-85
2023/03/30 11:24:55;;;;;;;2.97;1.90;;;;;;;15.48;26.06;100263.81;5061030;28;20127;-87
2023/03/30 11:27:50;;;;;;;0.20;0.20;;;;;;;15.05;25.67;100275.53;5071432;28;20036;-86
2023/03/30 11:30:23;;;;;;;2.13;1.02;;;;;;;15.41;26.60;100251.59;5071280;28;20033;-86
2023/03/30 11:32:56;;;;;;;0.20;0.20;;;;;;;15.73;27.06;100269.34;5071065;28;20055;-85
2023/03/30 11:35:45;;;;;;;7.88;1.85;;;;;;;15.70;27.02;100253.47;5071043;28;20029;-84
2023/03/30 11:38:18;;;;;;;0.43;0.43;;;;;;;15.80;25.66;100246.16;5070521;28;20033;-85
2023/03/30 11:41:19;;;;;;;0.65;0.45;;;;;;;16.04;24.73;100262.34;5070460;28;20052;-86
2023/03/30 11:43:45;;;;;;;1.88;0.77;;;;;;;15.90;27.24;100234.31;4968944;28;20129;-86
2023/03/30 11:46:20;;;;;;;2.38;0.57;;;;;;;16.19;27.98;100239.72;4972354;28;20090;-85
2023/03/30 11:49:03;;;;;;;0.10;0.10;;;;;;;16.34;27.50;100244.59;4988958;28;20038;-82
2023/03/30 11:51:51;;;;;;;0.95;0.80;;;;;;;16.00;26.66;100221.63;4972536;28;20066;-82
2023/03/30 11:54:22;;;;;;;0.20;0.20;;;;;;;15.85;27.15;100251.31;4988468;28;20039;-83
2023/03/30 11:56:52;;;;;;;0.22;0.22;;;;;;;16.16;28.29;100256.66;4989082;28;20030;-84
2023/03/30 11:59:42;;;;;;;0.60;0.60;;;;;;;15.98;27.13;100250.06;4987611;28;20118;-84
2023/03/30 12:02:28;;;;;;;0.50;0.50;;;;;;;16.03;27.20;100236.63;4969079;28;20051;-83
2023/03/30 12:05:08;;;;;;;0.43;0.40;;;;;;;16.07;27.29;100199.25;4969121;28;20158;-83
2023/03/30 12:07:58;;;;;;;0.98;0.98;;;;;;;16.42;26.85;100221.28;4969636;28;20362;-83
2023/03/30 12:10:41;;;;;;;1.75;1.63;;;;;;;16.45;27.37;100209.66;4968966;28;20073;-82
2023/03/30 12:13:12;;;;;;;0.30;0.30;;;;;;;16.16;28.46;100186.56;4968429;28;20488;-83
2023/03/30 12:15:54;;;;;;;0.40;0.40;;;;;;;16.27;30.13;100209.31;4952614;28;20031;-83